Polarstern — DBLK — position and weather

sailwx.info

Track history (hours):
 
Tides and Currents Weather Stations Pressure Air Temp Water Temp Dewpoint Dewpoint Depression Visibility Wind Speed Wind Dir Waves Ship Positions

Oceanographic research ship Polarstern (Germany)

Detailed information on ship capabilities available from University of Delaware's Ocean Information Center and ARCUS's ALIAS (Arctic Logistics Information and Support) project.

Last reported at 2019-Aug-24 08:00 UTC. Time now 2019-Aug-24 09:17 UTC.
Position N 79°00' E 004°24'.

Length 117.9 m; beam 25 m; draft 10.7 m.

Type: Other ship. MMSI: 211202460.

Wind from 210 at 14 knots

Barometer 1018.8 mb
Air temperature 1.3 ° C
Dewpoint 0.3 ° C
Water temperature 4.7 ° C

Date/timePositionNaut miles runAvg speedWind from/ knotsBaromVisibWave heightAir tempDewpointWater temp
2019-Aug-24 08:00N 79°00' E 004°24'0 0.0 210 / 141018.8 1.3 0.3 4.7
2019-Aug-24 07:00N 79°00' E 004°24'0 0.0 200 / 141018.8 1.3 0.1 4.6
2019-Aug-24 06:00N 79°00' E 004°24'0 0.0 210 / 141018.8 5.4 1.3 0.8 4.7
2019-Aug-24 05:00N 79°00' E 004°24'1010.0 200 / 121018.8 1.8 0.5 4.6
2019-Aug-24 04:00N 79°06' E 003°42'0 0.0 210 / 121018.7 1.8 1.3 4.7
2019-Aug-24 03:00N 79°06' E 003°42'0 0.0 210 / 101019.0 2.2 2.2 4.7
2019-Aug-24 02:00N 79°06' E 003°42'2 2.3 220 / 121019.0 2.9 2.7 4.7
2019-Aug-24 01:00N 79°06' E 003°30'0 0.0 210 / 121019.1 3.2 1.8 4.8
2019-Aug-24 00:00N 79°06' E 003°30'0 0.0 190 / 121019.1 3.2 1.7 4.6
2019-Aug-23 23:00N 79°06' E 003°30'0 0.0 200 / 121019.3 3.4 0.8 4.6
2019-Aug-23 22:00N 79°06' E 003°30'9 9.1 200 / 121019.3 3.5 1.1 4.8
2019-Aug-23 21:00N 79°06' E 004°18'7 6.8 200 / 101019.4 3.0 0.7 4.7
2019-Aug-23 20:00N 79°06' E 004°54'0 0.0 200 / 61019.9 2.6 0.2 5.6
2019-Aug-23 19:00N 79°06' E 004°54'0 0.0 210 / 61019.9 2.4-0.0 5.7
2019-Aug-23 18:00N 79°06' E 004°54'0 0.0 200 / 41019.727.0 2.2 0.3 5.9
2019-Aug-23 17:00N 79°06' E 004°54'0 0.0 220 / 41019.9 1.9-0.2 5.1
2019-Aug-23 16:00N 79°06' E 004°54'0 0.0 260 / 21019.9 2.0 0.3 5.2
2019-Aug-23 15:00N 79°06' E 004°54'0 0.0 260 / 41019.827.0 1.9 0.1 5.1
2019-Aug-23 14:00N 79°06' E 004°54'0 0.0 230 / 41019.9 1.6 0.1 5.3
2019-Aug-23 13:00N 79°06' E 004°54'0 0.0 240 / 61019.7 1.2-0.8 5.0
2019-Aug-23 12:00N 79°06' E 004°54'0 0.0 240 / 61019.727.0 1.0-0.5 5.1
2019-Aug-23 11:00N 79°06' E 004°54'0 0.0 220 / 61019.7 0.9-0.9 5.0
2019-Aug-23 10:00N 79°06' E 004°54'0 0.0 250 / 61019.4 1.0-0.3 5.1
2019-Aug-23 09:00N 79°06' E 004°54'0 0.0 250 / 41019.110.8 1.0-0.2 4.8
2019-Aug-23 08:00N 79°06' E 004°54'2 2.3 270 / 61019.0 0.8-0.4 4.7
2019-Aug-23 07:00N 79°06' E 004°42'9 9.1 260 / 61018.8 0.8-0.4 4.7
2019-Aug-23 06:00N 79°06' E 003°54'2 2.3 240 / 41018.510.8 0.3-0.7 4.8
2019-Aug-23 05:00N 79°06' E 003°42'0 0.0 240 / 61018.4 0.2-0.4 5.0
2019-Aug-23 04:00N 79°06' E 003°42'0 0.0 260 / 41018.1 0.2-0.5 4.8
2019-Aug-23 03:00N 79°06' E 003°42'6 6.0 210 / 61018.2 0.3-0.5 4.9
2019-Aug-23 02:00N 79°00' E 003°42'6 6.1 240 / 81018.0 0.7-0.2 5.0
2019-Aug-23 01:00N 78°54' E 003°48'0 0.0 260 / 61018.2 0.7-0.4 4.8
2019-Aug-23 00:00N 78°54' E 003°48'1312.8 240 / 81018.1 1.0-0.4 4.7
2019-Aug-22 23:00N 79°06' E 004°12'1 1.1 240 / 61017.9 0.6-0.4 4.7
2019-Aug-22 22:00N 79°06' E 004°18'2 2.3 240 / 61017.9 1.0-0.5 4.7
2019-Aug-22 21:00N 79°06' E 004°06'0 0.0 290 / 41017.8 0.3-0.6 4.7
2019-Aug-22 20:00N 79°06' E 004°06'1212.5 260 / 41017.5 0.4-0.5 4.8
2019-Aug-22 19:00N 78°54' E 003°48'0 0.0 260 / 81017.4 0.9-0.5 4.6
2019-Aug-22 18:00N 78°54' E 003°48'6 6.1 260 / 61017.327.0 0.6-0.6 4.6
2019-Aug-22 17:00N 79°00' E 003°54'9 9.2 250 / 41017.2 0.7 0.4 4.6
2019-Aug-22 16:00N 79°00' E 004°42'1111.4 250 / 61017.2 0.2-1.0 5.9
2019-Aug-22 15:00N 79°00' E 005°42'1010.3 260 / 61017.127.0 0.2-2.7 6.6
2019-Aug-22 14:00N 79°00' E 006°36'5 4.6 280 / 61017.2 0.1-1.3 6.5
2019-Aug-22 13:00N 79°00' E 007°00'0 0.0 290 / 41016.9 0.8 0.8 6.3
2019-Aug-22 12:00N 79°00' E 007°00'0 0.0 320 / 81016.927.0 -0.0-1.0 6.4
2019-Aug-22 11:00N 79°00' E 007°00'0 0.0 280 / 41016.9 0.1-1.1 6.4
2019-Aug-22 10:00N 79°00' E 007°00'0 0.0 290 / 81016.7 0.3-0.2 6.6
2019-Aug-22 09:00N 79°00' E 007°00'0 0.0 310 / 81016.527.0 0.4 0.4 6.5
2019-Aug-22 08:00N 79°00' E 007°00'0 0.0 330 / 61016.4 0.5 0.5 6.5
2019-Aug-22 07:00N 79°00' E 007°00'0 0.0 320 / 81016.2 0.5-0.2 6.6
2019-Aug-22 06:00N 79°00' E 007°00'0 0.0 350 / 81016.127.0 0.7-0.4 6.6
2019-Aug-22 05:00N 79°00' E 007°00'6 5.7 320 / 81016.1 0.5-0.5 6.5
2019-Aug-22 04:00N 79°00' E 006°30'1110.9 310 / 61016.1 0.4 0.3 6.6
2019-Aug-22 03:00N 79°06' E 005°42'8 7.9 330 / 61016.1 -0.1-0.5 6.7
2019-Aug-22 02:00N 79°06' E 005°00'5 4.5 330 / 41016.2 -0.5-1.5 5.4
2019-Aug-22 01:00N 79°06' E 004°36'0 0.0 310 / 61016.3 -0.5-1.7 5.0
2019-Aug-22 00:00N 79°06' E 004°36'0 0.0 310 / 61016.1 -0.6-2.0 4.9
2019-Aug-21 23:00N 79°06' E 004°36'0 0.0 320 / 61016.0 -0.5-1.8 5.3
2019-Aug-21 22:00N 79°06' E 004°36'0 0.0 350 / 81015.7 -0.6-1.9 5.0
2019-Aug-21 21:00N 79°06' E 004°36'0 0.0 340 / 81015.6 -0.5-1.8 5.1
2019-Aug-21 20:00N 79°06' E 004°36'3 3.4 340 / 81015.4 0.2-1.3 5.1
2019-Aug-21 19:00N 79°06' E 004°18'3 3.4 330 / 81015.2 0.6-1.6 4.7
2019-Aug-21 18:00N 79°06' E 004°00'0 0.0 320 / 81015.027.0 0.3-2.0 4.6
2019-Aug-21 17:00N 79°06' E 004°00'1 1.1 330 / 81014.6 0.8-1.4 4.7
2019-Aug-21 16:00N 79°06' E 004°06'0 0.0 330 / 81014.5 0.3-1.6 4.6
2019-Aug-21 15:00N 79°06' E 004°06'1 1.1 340 / 101014.310.8 -0.1-1.3 4.7
2019-Aug-21 14:00N 79°06' E 004°12'0 0.0 340 / 101014.2 0.1-1.2 4.8
2019-Aug-21 13:00N 79°06' E 004°12'0 0.0 360 / 101014.1 -0.5-1.2 4.7
2019-Aug-21 12:00N 79°06' E 004°12'0 0.0 350 / 101013.727.0 -0.5-1.2 4.7
2019-Aug-21 11:00N 79°06' E 004°12'0 0.0 340 / 121013.3 -0.7-1.1 4.7
2019-Aug-21 10:00N 79°06' E 004°12'0 0.0 340 / 121013.0 -0.3-1.1 4.7
2019-Aug-21 09:00N 79°06' E 004°12'0 0.0 340 / 141012.727.0 -0.4-1.9 4.8
2019-Aug-21 08:00N 79°06' E 004°12'0 0.0 350 / 161012.2 -0.3-1.0 4.8
2019-Aug-21 07:00N 79°06' E 004°12'2 2.3 350 / 161011.7 -0.8-2.3 4.7
2019-Aug-21 06:00N 79°06' E 004°00'1 1.1 350 / 161011.527.0 -1.0-1.6 4.6
2019-Aug-21 05:00N 79°06' E 004°06'1 1.1 350 / 171011.1 -0.6-1.5 4.6
2019-Aug-21 04:00N 79°06' E 004°12'0 0.0 360 / 191010.8 -0.5-1.2 4.7
2019-Aug-21 03:00N 79°06' E 004°12'0 0.0 360 / 191010.6 0.1-1.7 4.7
2019-Aug-21 02:00N 79°06' E 004°12'0 0.0 360 / 211010.4 0.5-1.2 4.7
2019-Aug-21 01:00N 79°06' E 004°12'0 0.0 360 / 231010.1 1.0-1.8 4.7
2019-Aug-21 00:00N 79°06' E 004°12'0 0.0 010 / 251009.7 2.0-2.3 4.7
2019-Aug-20 23:00N 79°06' E 004°12'1 1.1 010 / 271009.4 1.4-3.0 4.7
2019-Aug-20 22:00N 79°06' E 004°06'1312.8 020 / 291009.5 1.6-3.5 4.7
2019-Aug-20 21:00N 78°54' E 004°30'12 6.1 010 / 291008.2 2.1-3.3 4.9
2019-Aug-20 19:00N 78°42' E 004°42'6 6.4 010 / 351007.0 2.9-1.4 5.5
2019-Aug-20 18:00N 78°36' E 004°54'1 1.2 020 / 351007.010.8 3.2-0.6 6.4
2019-Aug-20 17:00N 78°36' E 005°00'0 0.0 010 / 331006.5 2.6-0.7 6.2
2019-Aug-20 16:00N 78°36' E 005°00'1 1.2 360 / 331006.4 2.6-0.3 6.0
2019-Aug-20 15:00N 78°36' E 005°06'1 1.2 360 / 311006.527.0 2.9-0.1 5.9
2019-Aug-20 14:00N 78°36' E 005°12'1 1.2 360 / 291006.5 3.2 3.2 5.9
2019-Aug-20 13:00N 78°36' E 005°06'0 0.0 360 / 291006.7 3.3 3.3 6.1
2019-Aug-20 12:00N 78°36' E 005°06'1 1.2 360 / 271007.110.8 3.6 3.3 6.3
2019-Aug-20 11:00N 78°36' E 005°00'0 0.0 360 / 291007.8 3.9 3.9 6.3
2019-Aug-20 10:00N 78°36' E 005°00'0 0.0 360 / 271008.0 3.9-1.6 6.4
2019-Aug-20 09:00N 78°36' E 005°00'0 0.0 010 / 231008.327.0 3.9 2.1 6.1
2019-Aug-20 08:00N 78°36' E 005°00'0 0.0 360 / 231008.5 3.9 3.9 6.2
2019-Aug-20 07:00N 78°36' E 005°00'1 1.2 010 / 191008.8 4.1 1.9 6.1
2019-Aug-20 06:00N 78°36' E 004°54'0 0.0 010 / 161009.127.0 4.2-0.1 6.1
2019-Aug-20 05:00N 78°36' E 004°54'0 0.0 360 / 161009.4 4.1-0.3 6.3
2019-Aug-20 04:00N 78°36' E 004°54'0 0.0 360 / 161009.5 4.1 1.2 6.1
2019-Aug-20 03:00N 78°36' E 004°54'1 1.2 360 / 141009.7 4.3 0.5 6.1
2019-Aug-20 02:00N 78°36' E 005°00'0 0.0 010 / 121010.0 3.8 0.7 6.2
2019-Aug-20 01:00N 78°36' E 005°00'6 6.1 360 / 101010.4 4.0 0.9 6.1
2019-Aug-20 00:00N 78°42' E 004°54'1212.2 350 / 61010.5 4.1 1.4 4.7
2019-Aug-19 23:00N 78°54' E 004°42'8 7.6 340 / 41010.6 3.9 1.5 6.5
2019-Aug-19 22:00N 79°00' E 004°18'6 2.1 170 / 21010.7 3.6 1.4 4.8
2019-Aug-19 19:00N 79°06' E 004°06'1 1.1 170 / 61010.8 3.5 1.9 4.8
2019-Aug-19 18:00N 79°06' E 004°12'1 1.1 150 / 61010.710.8 3.5 2.0 4.8
2019-Aug-19 17:00N 79°06' E 004°06'9 9.1 150 / 81010.6 3.2 2.0 4.7
2019-Aug-19 16:00N 79°06' E 004°54'0 0.0 150 / 21010.6 2.6 1.9 5.9
2019-Aug-19 15:00N 79°06' E 004°54'0 0.0 170 / 41010.6 5.4 2.5 1.4 5.8
2019-Aug-19 14:00N 79°06' E 004°54'0 0.0 160 / 61010.7 2.1-0.0 5.8
2019-Aug-19 13:00N 79°06' E 004°54'0 0.0 150 / 41010.7 1.8-0.1 5.7
2019-Aug-19 12:00N 79°06' E 004°54'0 0.0 150 / 41010.827.0 1.5-0.3 5.7
2019-Aug-19 11:00N 79°06' E 004°54'0 0.0 180 / 41010.6 1.0-0.3 5.6
2019-Aug-19 10:00N 79°06' E 004°54'0 0.0 170 / 61010.7 0.5-0.4 5.4
2019-Aug-19 09:00N 79°06' E 004°54'5 4.5 160 / 41010.827.0 0.1-0.6 5.5
2019-Aug-19 08:00N 79°06' E 004°30'7 6.9 140 / 61010.7 0.1-0.8 4.5
2019-Aug-19 07:00N 79°00' E 004°12'0 0.0 150 / 41010.6 2.1 0.8 4.7
2019-Aug-19 06:00N 79°00' E 004°12'1 1.1 170 / 41010.6 1.1 -0.4-0.4 4.7
2019-Aug-19 05:00N 79°00' E 004°06'1 1.1 170 / 41010.6 4.7
2019-Aug-19 04:00N 79°00' E 004°12'0 0.0 190 / 41010.4 -0.6-0.6 4.7
2019-Aug-19 03:00N 79°00' E 004°12'6 6.0 240 / 41010.5 -0.8-0.9 4.6
2019-Aug-19 02:00N 79°06' E 004°12'1 1.1 240 / 21010.6 -0.9-0.9 4.7
2019-Aug-19 01:00N 79°06' E 004°18'0 0.0 230 / 21010.6 -0.7-0.9 4.5
2019-Aug-19 00:00N 79°06' E 004°18'1 1.1 290 / 21010.6 -0.9-1.2 4.1
2019-Aug-18 23:00N 79°06' E 004°12'0 0.0 320 / 41010.5 -0.5-1.1 4.9
2019-Aug-18 22:00N 79°06' E 004°12'0 0.0 320 / 41010.4 -0.4-1.1 4.8
2019-Aug-18 21:00N 79°06' E 004°12'0 0.0 310 / 61010.2 0.3-0.8 5.3
2019-Aug-18 20:00N 79°06' E 004°12'0 0.0 310 / 61010.0 0.8-1.0 5.5
2019-Aug-18 19:00N 79°06' E 004°12'8 7.9 300 / 81009.6 0.5-0.3 5.2
2019-Aug-18 18:00N 79°06' E 004°54'0 0.0 300 / 81009.4 0.8-1.1 5.8
2019-Aug-18 17:00N 79°06' E 004°54'0 0.0 280 / 81009.3 0.8 0.8 5.8
2019-Aug-18 16:00N 79°06' E 004°54'0 0.0 300 / 81009.2 1.0-0.6 5.9
2019-Aug-18 15:00N 79°06' E 004°54'0 0.0 300 / 101008.927.0 0.7-3.8 6.0
2019-Aug-18 14:00N 79°06' E 004°54'0 0.0 300 / 101008.8 0.8-3.6 5.9
2019-Aug-18 13:00N 79°06' E 004°54'0 0.0 300 / 101008.8 0.8 0.8 5.9
2019-Aug-18 12:00N 79°06' E 004°54'0 0.0 280 / 81008.610.8 1.0 1.0 5.9
2019-Aug-18 11:00N 79°06' E 004°54'0 0.0 270 / 61008.4 0.8-0.9 5.9
2019-Aug-18 10:00N 79°06' E 004°54'0 0.0 270 / 61008.3 0.8-1.4 5.9
2019-Aug-18 09:00N 79°06' E 004°54'1111.3 280 / 81008.227.0 0.2-1.3 5.9
2019-Aug-18 08:00N 79°06' E 005°54'3 3.4 310 / 81007.7 0.9-2.3 6.9
2019-Aug-18 07:00N 79°06' E 006°12'0 0.0 300 / 61007.6 1.1-1.8 6.8
2019-Aug-18 06:00N 79°06' E 006°12'1 0.6 320 / 81007.410.8 0.1-0.5 6.8
2019-Aug-18 04:00N 79°06' E 006°18'2 2.3 330 / 81006.9 0.6-2.2 6.7
2019-Aug-18 03:00N 79°06' E 006°06'1 1.1 320 / 101006.7 0.1-0.8 6.8
2019-Aug-18 02:00N 79°06' E 006°00'0 0.0 310 / 101006.5 -0.0-2.1 6.8
2019-Aug-18 01:00N 79°06' E 006°00'0 0.0 290 / 141006.2 0.6-1.8 6.9
2019-Aug-18 00:00N 79°06' E 006°00'0 0.0 290 / 141006.1 -0.1-0.5 6.9
2019-Aug-17 23:00N 79°06' E 006°00'1 1.1 300 / 121005.9 0.2-0.9 7.0
2019-Aug-17 22:00N 79°06' E 006°06'0 0.0 300 / 121005.6 1.0-1.2 6.8
2019-Aug-17 21:00N 79°06' E 006°06'0 0.0 300 / 141005.3 0.8-1.1 6.8
2019-Aug-17 20:00N 79°06' E 006°06'0 0.0 300 / 141005.0 1.0-1.0 6.7
2019-Aug-17 19:00N 79°06' E 006°06'0 0.0 300 / 161004.8 1.2-1.2 6.9
2019-Aug-17 18:00N 79°06' E 006°06'0 0.0 300 / 161004.710.8 0.9-0.9 7.0
2019-Aug-17 17:00N 79°06' E 006°06'2 2.3 300 / 171004.4 1.0 1.0 6.9
2019-Aug-17 16:00N 79°06' E 006°18'1110.9 300 / 171003.9 1.0 0.1 6.8
2019-Aug-17 15:00N 79°00' E 007°06'0 0.0 300 / 161003.8 5.4 1.4-0.3 7.0
2019-Aug-17 14:00N 79°00' E 007°06'1 1.1 300 / 161004.1 1.5-0.1 7.0
2019-Aug-17 13:00N 79°00' E 007°00'1 1.1 300 / 161003.8 1.5 1.5 6.9
2019-Aug-17 12:00N 79°00' E 007°06'0 0.0 290 / 161003.710.8 1.8-0.3 7.0
2019-Aug-17 11:00N 79°00' E 007°06'1 1.1 300 / 161003.6 1.6-0.5 7.0
2019-Aug-17 10:00N 79°00' E 007°00'0 0.0 310 / 171003.4 1.6 1.6 7.0
2019-Aug-17 09:00N 79°00' E 007°00'0 0.0 300 / 171003.210.8 1.4 1.4 6.9
2019-Aug-17 08:00N 79°00' E 007°00'1 1.1 310 / 171003.0 1.6 0.3 6.8
2019-Aug-17 07:00N 79°00' E 007°06'1 1.1 310 / 161002.8 1.8-0.5 7.0
2019-Aug-17 06:00N 79°00' E 007°00'0 0.0 320 / 161002.610.8 1.6-0.8 7.0
2019-Aug-17 05:00N 79°00' E 007°00'8 7.6 320 / 171002.3 1.4-0.9 7.0
2019-Aug-17 04:00N 78°54' E 006°36'9 9.2 310 / 191002.2 1.8-0.3 6.8
2019-Aug-17 03:00N 78°48' E 006°00'9 9.2 310 / 191002.5 1.5 0.1 6.5
2019-Aug-17 02:00N 78°42' E 005°24'8 7.6 320 / 171002.8 1.6-0.4 6.0
2019-Aug-17 01:00N 78°36' E 005°00'1 1.2 320 / 191003.1 1.0-0.8 6.1
2019-Aug-17 00:00N 78°36' E 005°06'6 6.1 320 / 211002.8 1.2-0.7 6.0
2019-Aug-16 23:00N 78°30' E 005°00'1212.0 310 / 231002.6 1.4-0.8 5.9
2019-Aug-16 22:00N 78°18' E 005°00'1212.0 310 / 211002.9 2.0 0.3 5.7
2019-Aug-16 21:00N 78°06' E 005°00'1212.1 320 / 211003.4 2.3 0.5 6.0
2019-Aug-16 20:00N 77°54' E 004°54'1212.0 310 / 231003.5 2.5 1.2 6.1
2019-Aug-16 19:00N 77°42' E 004°54'1212.0 320 / 231003.6 3.3 1.7 6.8
2019-Aug-16 18:00N 77°30' E 004°54'6 6.1 320 / 231003.710.8 3.2 1.2 6.7
2019-Aug-16 17:00N 77°24' E 004°48'1212.0 320 / 231003.8 3.4 1.9 6.5
2019-Aug-16 16:00N 77°12' E 004°48'1212.0 320 / 231004.0 2.9 1.6 6.9
2019-Aug-16 15:00N 77°00' E 004°48'1212.0 320 / 231004.310.8 3.2 2.1 7.0
2019-Aug-16 14:00N 76°48' E 004°48'6 6.2 320 / 231004.6 3.0 3.0 7.4
2019-Aug-16 13:00N 76°42' E 004°42'1212.0 330 / 211004.7 4.0-0.1 7.5
2019-Aug-16 12:00N 76°30' E 004°42'1212.0 340 / 211004.710.8 4.1 1.0 7.5
2019-Aug-16 11:00N 76°18' E 004°42'1212.1 340 / 191004.9 3.7 1.4 7.8
2019-Aug-16 10:00N 76°06' E 004°36'6 6.0 340 / 191004.9 4.0 0.1 7.5
2019-Aug-16 09:00N 76°00' E 004°36'1212.0 340 / 211004.727.0 3.5-0.2 7.7
2019-Aug-16 08:00N 75°48' E 004°36'1212.0 330 / 211004.6 4.2 0.2 7.9
2019-Aug-16 07:00N 75°36' E 004°36'1212.1 340 / 231004.4 3.7-0.8 7.9
2019-Aug-16 06:00N 75°24' E 004°30'1212.0 340 / 211004.327.0 3.9-0.2 8.2
2019-Aug-16 05:00N 75°12' E 004°30'6 6.0 330 / 231004.6 2.8-1.2 8.1
2019-Aug-16 04:00N 75°06' E 004°30'1212.0 320 / 211004.5 3.2 0.1 8.1
2019-Aug-16 03:00N 74°54' E 004°30'1212.1 340 / 191004.4 3.8-0.2 8.2
2019-Aug-16 02:00N 74°42' E 004°24'1212.0 330 / 191004.4 4.4 1.1 8.3
2019-Aug-16 01:00N 74°30' E 004°24'6 6.0 310 / 171004.9 4.6 1.1 8.3
2019-Aug-16 00:00N 74°24' E 004°24'1212.0 310 / 161005.2 4.9 3.3 8.6
2019-Aug-15 23:00N 74°12' E 004°24'1212.1 310 / 141005.5 6.2 4.2 8.6
2019-Aug-15 22:00N 74°00' E 004°18'1212.0 310 / 141005.7 7.0 4.6 8.3
2019-Aug-15 21:00N 73°48' E 004°18'1212.0 290 / 141006.1 7.4 5.2 8.5
2019-Aug-15 20:00N 73°36' E 004°18'1212.0 290 / 101006.2 7.3 5.5 8.1
2019-Aug-15 19:00N 73°24' E 004°18'6 6.2 310 / 101006.5 7.3 0.1 8.2
2019-Aug-15 18:00N 73°18' E 004°12'1212.0 310 / 101007.010.8 7.1 4.9 8.6
2019-Aug-15 17:00N 73°06' E 004°12'1212.0 290 / 81007.3 6.8 6.8 8.4
2019-Aug-15 16:00N 72°54' E 004°12'1212.0 320 / 101007.6 6.0 6.0 8.1
2019-Aug-15 15:00N 72°42' E 004°12'0 0.0 300 / 101007.827.0 6.4 3.1 9.0
2019-Aug-15 14:00N 72°42' E 004°12'6 6.0 300 / 121007.9 6.6 3.7 9.1
2019-Aug-15 13:00N 72°36' E 004°12'1212.1 300 / 121007.7 6.4 3.9 9.2
2019-Aug-15 12:00N 72°24' E 004°06'1212.0 300 / 101008.127.0 6.9 4.2 9.3
2019-Aug-15 11:00N 72°12' E 004°06'1212.0 290 / 81008.5 6.1 3.3 9.0
2019-Aug-15 10:00N 72°00' E 004°06'1212.0 330 / 41008.8 5.2 2.7 8.9
2019-Aug-15 09:00N 71°48' E 004°06'6 6.0 360 / 61009.210.8 5.4 2.7 9.5
2019-Aug-15 08:00N 71°42' E 004°06'1212.1 030 / 81008.9 6.0 2.2 9.2
2019-Aug-15 07:00N 71°30' E 004°00'1212.0 030 / 141008.9 6.6 2.6 9.4
2019-Aug-15 06:00N 71°18' E 004°00'1212.0 050 / 161008.810.8 6.8 2.7 9.6
2019-Aug-15 05:00N 71°06' E 004°00'1212.0 060 / 171008.5 7.0 3.5 8.9
2019-Aug-15 04:00N 70°54' E 004°00'6 6.3 060 / 191008.0 7.4 2.4 9.9
2019-Aug-15 03:00N 70°48' E 003°54'1212.0 060 / 211007.7 8.0 3.6 9.4
2019-Aug-15 02:00N 70°36' E 003°54'1212.0 070 / 211007.3 8.1 3.7 9.2
2019-Aug-15 01:00N 70°24' E 003°54'1212.0 070 / 231007.3 8.1 4.1 9.3
2019-Aug-15 00:00N 70°12' E 003°54'6 6.0 070 / 251006.8 8.0 4.1 9.4
2019-Aug-14 23:00N 70°06' E 003°54'1212.2 080 / 271006.7 7.8 4.010.1
2019-Aug-14 22:00N 69°54' E 003°48'1212.0 070 / 271006.0 8.4 4.010.3
2019-Aug-14 21:00N 69°42' E 003°48'1212.0 070 / 271005.8 8.1 3.7 8.2
2019-Aug-14 20:00N 69°30' E 003°48'6 6.0 070 / 271005.2 8.0 4.2 9.1
2019-Aug-14 19:00N 69°24' E 003°48'1212.0 060 / 291005.1 8.3 4.810.6
2019-Aug-14 18:00N 69°12' E 003°48'1212.0 070 / 311004.0 2.2 8.5 5.111.0
2019-Aug-14 17:00N 69°00' E 003°48'1212.0 070 / 291004.2 9.2 5.811.2
2019-Aug-14 16:00N 68°48' E 003°48'6 6.4 070 / 291003.3 9.2 6.410.9
2019-Aug-14 15:00N 68°42' E 003°42'1212.0 070 / 311003.0 2.2 9.3 6.510.6
2019-Aug-14 14:00N 68°30' E 003°42'6 6.0 060 / 311003.1 9.2 6.711.3
2019-Aug-14 13:00N 68°24' E 003°42'1212.0 060 / 331002.5 9.4 6.911.5
2019-Aug-14 12:00N 68°12' E 003°42'1212.2 060 / 311002.2 2.2 9.5 7.811.3
2019-Aug-14 11:00N 68°00' E 003°36'6 6.0 060 / 311001.6 9.6 8.211.6
2019-Aug-14 10:00N 67°54' E 003°36'1212.0 060 / 291001.3 9.7 8.711.5
2019-Aug-14 09:00N 67°42' E 003°36'1212.0 060 / 271001.1 2.2 9.8 9.111.6
2019-Aug-14 08:00N 67°30' E 003°36'   060 / 291000.8 10.0 8.611.3
Track history (hours):
 
Tides and Currents Weather Stations Pressure Air Temp Water Temp Dewpoint Dewpoint Depression Visibility Wind Speed Wind Dir Waves Ship Positions

Oceanographic research ship Polarstern (Germany)

Detailed information on ship capabilities available from University of Delaware's Ocean Information Center and ARCUS's ALIAS (Arctic Logistics Information and Support) project.

Last reported at 2019-Aug-24 08:00 UTC. Time now 2019-Aug-24 09:17 UTC.
Position N 79°00' E 004°24'.

Length 117.9 m; beam 25 m; draft 10.7 m.

Type: Other ship. MMSI: 211202460.

Wind from 210 at 14 knots

Barometer 1018.8 mb
Air temperature 1.3 ° C
Dewpoint 0.3 ° C
Water temperature 4.7 ° C

Date/timePositionNaut miles runAvg speedWind from/ knotsBaromVisibWave heightAir tempDewpointWater temp
2019-Aug-24 08:00N 79°00' E 004°24'0 0.0 210 / 141018.8 1.3 0.3 4.7
2019-Aug-24 07:00N 79°00' E 004°24'0 0.0 200 / 141018.8 1.3 0.1 4.6
2019-Aug-24 06:00N 79°00' E 004°24'0 0.0 210 / 141018.8 5.4 1.3 0.8 4.7
2019-Aug-24 05:00N 79°00' E 004°24'1010.0 200 / 121018.8 1.8 0.5 4.6
2019-Aug-24 04:00N 79°06' E 003°42'0 0.0 210 / 121018.7 1.8 1.3 4.7
2019-Aug-24 03:00N 79°06' E 003°42'0 0.0 210 / 101019.0 2.2 2.2 4.7
2019-Aug-24 02:00N 79°06' E 003°42'2 2.3 220 / 121019.0 2.9 2.7 4.7
2019-Aug-24 01:00N 79°06' E 003°30'0 0.0 210 / 121019.1 3.2 1.8 4.8
2019-Aug-24 00:00N 79°06' E 003°30'0 0.0 190 / 121019.1 3.2 1.7 4.6
2019-Aug-23 23:00N 79°06' E 003°30'0 0.0 200 / 121019.3 3.4 0.8 4.6
2019-Aug-23 22:00N 79°06' E 003°30'9 9.1 200 / 121019.3 3.5 1.1 4.8
2019-Aug-23 21:00N 79°06' E 004°18'7 6.8 200 / 101019.4 3.0 0.7 4.7
2019-Aug-23 20:00N 79°06' E 004°54'0 0.0 200 / 61019.9 2.6 0.2 5.6
2019-Aug-23 19:00N 79°06' E 004°54'0 0.0 210 / 61019.9 2.4-0.0 5.7
2019-Aug-23 18:00N 79°06' E 004°54'0 0.0 200 / 41019.727.0 2.2 0.3 5.9
2019-Aug-23 17:00N 79°06' E 004°54'0 0.0 220 / 41019.9 1.9-0.2 5.1
2019-Aug-23 16:00N 79°06' E 004°54'0 0.0 260 / 21019.9 2.0 0.3 5.2
2019-Aug-23 15:00N 79°06' E 004°54'0 0.0 260 / 41019.827.0 1.9 0.1 5.1
2019-Aug-23 14:00N 79°06' E 004°54'0 0.0 230 / 41019.9 1.6 0.1 5.3
2019-Aug-23 13:00N 79°06' E 004°54'0 0.0 240 / 61019.7 1.2-0.8 5.0
2019-Aug-23 12:00N 79°06' E 004°54'0 0.0 240 / 61019.727.0 1.0-0.5 5.1
2019-Aug-23 11:00N 79°06' E 004°54'0 0.0 220 / 61019.7 0.9-0.9 5.0
2019-Aug-23 10:00N 79°06' E 004°54'0 0.0 250 / 61019.4 1.0-0.3 5.1
2019-Aug-23 09:00N 79°06' E 004°54'0 0.0 250 / 41019.110.8 1.0-0.2 4.8
2019-Aug-23 08:00N 79°06' E 004°54'2 2.3 270 / 61019.0 0.8-0.4 4.7
2019-Aug-23 07:00N 79°06' E 004°42'9 9.1 260 / 61018.8 0.8-0.4 4.7
2019-Aug-23 06:00N 79°06' E 003°54'2 2.3 240 / 41018.510.8 0.3-0.7 4.8
2019-Aug-23 05:00N 79°06' E 003°42'0 0.0 240 / 61018.4 0.2-0.4 5.0
2019-Aug-23 04:00N 79°06' E 003°42'0 0.0 260 / 41018.1 0.2-0.5 4.8
2019-Aug-23 03:00N 79°06' E 003°42'6 6.0 210 / 61018.2 0.3-0.5 4.9
2019-Aug-23 02:00N 79°00' E 003°42'6 6.1 240 / 81018.0 0.7-0.2 5.0
2019-Aug-23 01:00N 78°54' E 003°48'0 0.0 260 / 61018.2 0.7-0.4 4.8
2019-Aug-23 00:00N 78°54' E 003°48'1312.8 240 / 81018.1 1.0-0.4 4.7
2019-Aug-22 23:00N 79°06' E 004°12'1 1.1 240 / 61017.9 0.6-0.4 4.7
2019-Aug-22 22:00N 79°06' E 004°18'2 2.3 240 / 61017.9 1.0-0.5 4.7
2019-Aug-22 21:00N 79°06' E 004°06'0 0.0 290 / 41017.8 0.3-0.6 4.7
2019-Aug-22 20:00N 79°06' E 004°06'1212.5 260 / 41017.5 0.4-0.5 4.8
2019-Aug-22 19:00N 78°54' E 003°48'0 0.0 260 / 81017.4 0.9-0.5 4.6
2019-Aug-22 18:00N 78°54' E 003°48'6 6.1 260 / 61017.327.0 0.6-0.6 4.6
2019-Aug-22 17:00N 79°00' E 003°54'9 9.2 250 / 41017.2 0.7 0.4 4.6
2019-Aug-22 16:00N 79°00' E 004°42'1111.4 250 / 61017.2 0.2-1.0 5.9
2019-Aug-22 15:00N 79°00' E 005°42'1010.3 260 / 61017.127.0 0.2-2.7 6.6
2019-Aug-22 14:00N 79°00' E 006°36'5 4.6 280 / 61017.2 0.1-1.3 6.5
2019-Aug-22 13:00N 79°00' E 007°00'0 0.0 290 / 41016.9 0.8 0.8 6.3
2019-Aug-22 12:00N 79°00' E 007°00'0 0.0 320 / 81016.927.0 -0.0-1.0 6.4
2019-Aug-22 11:00N 79°00' E 007°00'0 0.0 280 / 41016.9 0.1-1.1 6.4
2019-Aug-22 10:00N 79°00' E 007°00'0 0.0 290 / 81016.7 0.3-0.2 6.6
2019-Aug-22 09:00N 79°00' E 007°00'0 0.0 310 / 81016.527.0 0.4 0.4 6.5
2019-Aug-22 08:00N 79°00' E 007°00'0 0.0 330 / 61016.4 0.5 0.5 6.5
2019-Aug-22 07:00N 79°00' E 007°00'0 0.0 320 / 81016.2 0.5-0.2 6.6
2019-Aug-22 06:00N 79°00' E 007°00'0 0.0 350 / 81016.127.0 0.7-0.4 6.6
2019-Aug-22 05:00N 79°00' E 007°00'6 5.7 320 / 81016.1 0.5-0.5 6.5
2019-Aug-22 04:00N 79°00' E 006°30'1110.9 310 / 61016.1 0.4 0.3 6.6
2019-Aug-22 03:00N 79°06' E 005°42'8 7.9 330 / 61016.1 -0.1-0.5 6.7
2019-Aug-22 02:00N 79°06' E 005°00'5 4.5 330 / 41016.2 -0.5-1.5 5.4
2019-Aug-22 01:00N 79°06' E 004°36'0 0.0 310 / 61016.3 -0.5-1.7 5.0
2019-Aug-22 00:00N 79°06' E 004°36'0 0.0 310 / 61016.1 -0.6-2.0 4.9
2019-Aug-21 23:00N 79°06' E 004°36'0 0.0 320 / 61016.0 -0.5-1.8 5.3
2019-Aug-21 22:00N 79°06' E 004°36'0 0.0 350 / 81015.7 -0.6-1.9 5.0
2019-Aug-21 21:00N 79°06' E 004°36'0 0.0 340 / 81015.6 -0.5-1.8 5.1
2019-Aug-21 20:00N 79°06' E 004°36'3 3.4 340 / 81015.4 0.2-1.3 5.1
2019-Aug-21 19:00N 79°06' E 004°18'3 3.4 330 / 81015.2 0.6-1.6 4.7
2019-Aug-21 18:00N 79°06' E 004°00'0 0.0 320 / 81015.027.0 0.3-2.0 4.6
2019-Aug-21 17:00N 79°06' E 004°00'1 1.1 330 / 81014.6 0.8-1.4 4.7
2019-Aug-21 16:00N 79°06' E 004°06'0 0.0 330 / 81014.5 0.3-1.6 4.6
2019-Aug-21 15:00N 79°06' E 004°06'1 1.1 340 / 101014.310.8 -0.1-1.3 4.7
2019-Aug-21 14:00N 79°06' E 004°12'0 0.0 340 / 101014.2 0.1-1.2 4.8
2019-Aug-21 13:00N 79°06' E 004°12'0 0.0 360 / 101014.1 -0.5-1.2 4.7
2019-Aug-21 12:00N 79°06' E 004°12'0 0.0 350 / 101013.727.0 -0.5-1.2 4.7
2019-Aug-21 11:00N 79°06' E 004°12'0 0.0 340 / 121013.3 -0.7-1.1 4.7
2019-Aug-21 10:00N 79°06' E 004°12'0 0.0 340 / 121013.0 -0.3-1.1 4.7
2019-Aug-21 09:00N 79°06' E 004°12'0 0.0 340 / 141012.727.0 -0.4-1.9 4.8
2019-Aug-21 08:00N 79°06' E 004°12'0 0.0 350 / 161012.2 -0.3-1.0 4.8
2019-Aug-21 07:00N 79°06' E 004°12'2 2.3 350 / 161011.7 -0.8-2.3 4.7
2019-Aug-21 06:00N 79°06' E 004°00'1 1.1 350 / 161011.527.0 -1.0-1.6 4.6
2019-Aug-21 05:00N 79°06' E 004°06'1 1.1 350 / 171011.1 -0.6-1.5 4.6
2019-Aug-21 04:00N 79°06' E 004°12'0 0.0 360 / 191010.8 -0.5-1.2 4.7
2019-Aug-21 03:00N 79°06' E 004°12'0 0.0 360 / 191010.6 0.1-1.7 4.7
2019-Aug-21 02:00N 79°06' E 004°12'0 0.0 360 / 211010.4 0.5-1.2 4.7
2019-Aug-21 01:00N 79°06' E 004°12'0 0.0 360 / 231010.1 1.0-1.8 4.7
2019-Aug-21 00:00N 79°06' E 004°12'0 0.0 010 / 251009.7 2.0-2.3 4.7
2019-Aug-20 23:00N 79°06' E 004°12'1 1.1 010 / 271009.4 1.4-3.0 4.7
2019-Aug-20 22:00N 79°06' E 004°06'1312.8 020 / 291009.5 1.6-3.5 4.7
2019-Aug-20 21:00N 78°54' E 004°30'12 6.1 010 / 291008.2 2.1-3.3 4.9
2019-Aug-20 19:00N 78°42' E 004°42'6 6.4 010 / 351007.0 2.9-1.4 5.5
2019-Aug-20 18:00N 78°36' E 004°54'1 1.2 020 / 351007.010.8 3.2-0.6 6.4
2019-Aug-20 17:00N 78°36' E 005°00'0 0.0 010 / 331006.5 2.6-0.7 6.2
2019-Aug-20 16:00N 78°36' E 005°00'1 1.2 360 / 331006.4 2.6-0.3 6.0
2019-Aug-20 15:00N 78°36' E 005°06'1 1.2 360 / 311006.527.0 2.9-0.1 5.9
2019-Aug-20 14:00N 78°36' E 005°12'1 1.2 360 / 291006.5 3.2 3.2 5.9
2019-Aug-20 13:00N 78°36' E 005°06'0 0.0 360 / 291006.7 3.3 3.3 6.1
2019-Aug-20 12:00N 78°36' E 005°06'1 1.2 360 / 271007.110.8 3.6 3.3 6.3
2019-Aug-20 11:00N 78°36' E 005°00'0 0.0 360 / 291007.8 3.9 3.9 6.3
2019-Aug-20 10:00N 78°36' E 005°00'0 0.0 360 / 271008.0 3.9-1.6 6.4
2019-Aug-20 09:00N 78°36' E 005°00'0 0.0 010 / 231008.327.0 3.9 2.1 6.1
2019-Aug-20 08:00N 78°36' E 005°00'0 0.0 360 / 231008.5 3.9 3.9 6.2
2019-Aug-20 07:00N 78°36' E 005°00'1 1.2 010 / 191008.8 4.1 1.9 6.1
2019-Aug-20 06:00N 78°36' E 004°54'0 0.0 010 / 161009.127.0 4.2-0.1 6.1
2019-Aug-20 05:00N 78°36' E 004°54'0 0.0 360 / 161009.4 4.1-0.3 6.3
2019-Aug-20 04:00N 78°36' E 004°54'0 0.0 360 / 161009.5 4.1 1.2 6.1
2019-Aug-20 03:00N 78°36' E 004°54'1 1.2 360 / 141009.7 4.3 0.5 6.1
2019-Aug-20 02:00N 78°36' E 005°00'0 0.0 010 / 121010.0 3.8 0.7 6.2
2019-Aug-20 01:00N 78°36' E 005°00'6 6.1 360 / 101010.4 4.0 0.9 6.1
2019-Aug-20 00:00N 78°42' E 004°54'1212.2 350 / 61010.5 4.1 1.4 4.7
2019-Aug-19 23:00N 78°54' E 004°42'8 7.6 340 / 41010.6 3.9 1.5 6.5
2019-Aug-19 22:00N 79°00' E 004°18'6 2.1 170 / 21010.7 3.6 1.4 4.8
2019-Aug-19 19:00N 79°06' E 004°06'1 1.1 170 / 61010.8 3.5 1.9 4.8
2019-Aug-19 18:00N 79°06' E 004°12'1 1.1 150 / 61010.710.8 3.5 2.0 4.8
2019-Aug-19 17:00N 79°06' E 004°06'9 9.1 150 / 81010.6 3.2 2.0 4.7
2019-Aug-19 16:00N 79°06' E 004°54'0 0.0 150 / 21010.6 2.6 1.9 5.9
2019-Aug-19 15:00N 79°06' E 004°54'0 0.0 170 / 41010.6 5.4 2.5 1.4 5.8
2019-Aug-19 14:00N 79°06' E 004°54'0 0.0 160 / 61010.7 2.1-0.0 5.8
2019-Aug-19 13:00N 79°06' E 004°54'0 0.0 150 / 41010.7 1.8-0.1 5.7
2019-Aug-19 12:00N 79°06' E 004°54'0 0.0 150 / 41010.827.0 1.5-0.3 5.7
2019-Aug-19 11:00N 79°06' E 004°54'0 0.0 180 / 41010.6 1.0-0.3 5.6
2019-Aug-19 10:00N 79°06' E 004°54'0 0.0 170 / 61010.7 0.5-0.4 5.4
2019-Aug-19 09:00N 79°06' E 004°54'5 4.5 160 / 41010.827.0 0.1-0.6 5.5
2019-Aug-19 08:00N 79°06' E 004°30'7 6.9 140 / 61010.7 0.1-0.8 4.5
2019-Aug-19 07:00N 79°00' E 004°12'0 0.0 150 / 41010.6 2.1 0.8 4.7
2019-Aug-19 06:00N 79°00' E 004°12'1 1.1 170 / 41010.6 1.1 -0.4-0.4 4.7
2019-Aug-19 05:00N 79°00' E 004°06'1 1.1 170 / 41010.6 4.7
2019-Aug-19 04:00N 79°00' E 004°12'0 0.0 190 / 41010.4 -0.6-0.6 4.7
2019-Aug-19 03:00N 79°00' E 004°12'6 6.0 240 / 41010.5 -0.8-0.9 4.6
2019-Aug-19 02:00N 79°06' E 004°12'1 1.1 240 / 21010.6 -0.9-0.9 4.7
2019-Aug-19 01:00N 79°06' E 004°18'0 0.0 230 / 21010.6 -0.7-0.9 4.5
2019-Aug-19 00:00N 79°06' E 004°18'1 1.1 290 / 21010.6 -0.9-1.2 4.1
2019-Aug-18 23:00N 79°06' E 004°12'0 0.0 320 / 41010.5 -0.5-1.1 4.9
2019-Aug-18 22:00N 79°06' E 004°12'0 0.0 320 / 41010.4 -0.4-1.1 4.8
2019-Aug-18 21:00N 79°06' E 004°12'0 0.0 310 / 61010.2 0.3-0.8 5.3
2019-Aug-18 20:00N 79°06' E 004°12'0 0.0 310 / 61010.0 0.8-1.0 5.5
2019-Aug-18 19:00N 79°06' E 004°12'8 7.9 300 / 81009.6 0.5-0.3 5.2
2019-Aug-18 18:00N 79°06' E 004°54'0 0.0 300 / 81009.4 0.8-1.1 5.8
2019-Aug-18 17:00N 79°06' E 004°54'0 0.0 280 / 81009.3 0.8 0.8 5.8
2019-Aug-18 16:00N 79°06' E 004°54'0 0.0 300 / 81009.2 1.0-0.6 5.9
2019-Aug-18 15:00N 79°06' E 004°54'0 0.0 300 / 101008.927.0 0.7-3.8 6.0
2019-Aug-18 14:00N 79°06' E 004°54'0 0.0 300 / 101008.8 0.8-3.6 5.9
2019-Aug-18 13:00N 79°06' E 004°54'0 0.0 300 / 101008.8 0.8 0.8 5.9
2019-Aug-18 12:00N 79°06' E 004°54'0 0.0 280 / 81008.610.8 1.0 1.0 5.9
2019-Aug-18 11:00N 79°06' E 004°54'0 0.0 270 / 61008.4 0.8-0.9 5.9
2019-Aug-18 10:00N 79°06' E 004°54'0 0.0 270 / 61008.3 0.8-1.4 5.9
2019-Aug-18 09:00N 79°06' E 004°54'1111.3 280 / 81008.227.0 0.2-1.3 5.9
2019-Aug-18 08:00N 79°06' E 005°54'3 3.4 310 / 81007.7 0.9-2.3 6.9
2019-Aug-18 07:00N 79°06' E 006°12'0 0.0 300 / 61007.6 1.1-1.8 6.8
2019-Aug-18 06:00N 79°06' E 006°12'1 0.6 320 / 81007.410.8 0.1-0.5 6.8
2019-Aug-18 04:00N 79°06' E 006°18'2 2.3 330 / 81006.9 0.6-2.2 6.7
2019-Aug-18 03:00N 79°06' E 006°06'1 1.1 320 / 101006.7 0.1-0.8 6.8
2019-Aug-18 02:00N 79°06' E 006°00'0 0.0 310 / 101006.5 -0.0-2.1 6.8
2019-Aug-18 01:00N 79°06' E 006°00'0 0.0 290 / 141006.2 0.6-1.8 6.9
2019-Aug-18 00:00N 79°06' E 006°00'0 0.0 290 / 141006.1 -0.1-0.5 6.9
2019-Aug-17 23:00N 79°06' E 006°00'1 1.1 300 / 121005.9 0.2-0.9 7.0
2019-Aug-17 22:00N 79°06' E 006°06'0 0.0 300 / 121005.6 1.0-1.2 6.8
2019-Aug-17 21:00N 79°06' E 006°06'0 0.0 300 / 141005.3 0.8-1.1 6.8
2019-Aug-17 20:00N 79°06' E 006°06'0 0.0 300 / 141005.0 1.0-1.0 6.7
2019-Aug-17 19:00N 79°06' E 006°06'0 0.0 300 / 161004.8 1.2-1.2 6.9
2019-Aug-17 18:00N 79°06' E 006°06'0 0.0 300 / 161004.710.8 0.9-0.9 7.0
2019-Aug-17 17:00N 79°06' E 006°06'2 2.3 300 / 171004.4 1.0 1.0 6.9
2019-Aug-17 16:00N 79°06' E 006°18'1110.9 300 / 171003.9 1.0 0.1 6.8
2019-Aug-17 15:00N 79°00' E 007°06'0 0.0 300 / 161003.8 5.4 1.4-0.3 7.0
2019-Aug-17 14:00N 79°00' E 007°06'1 1.1 300 / 161004.1 1.5-0.1 7.0
2019-Aug-17 13:00N 79°00' E 007°00'1 1.1 300 / 161003.8 1.5 1.5 6.9
2019-Aug-17 12:00N 79°00' E 007°06'0 0.0 290 / 161003.710.8 1.8-0.3 7.0
2019-Aug-17 11:00N 79°00' E 007°06'1 1.1 300 / 161003.6 1.6-0.5 7.0
2019-Aug-17 10:00N 79°00' E 007°00'0 0.0 310 / 171003.4 1.6 1.6 7.0
2019-Aug-17 09:00N 79°00' E 007°00'0 0.0 300 / 171003.210.8 1.4 1.4 6.9
2019-Aug-17 08:00N 79°00' E 007°00'1 1.1 310 / 171003.0 1.6 0.3 6.8
2019-Aug-17 07:00N 79°00' E 007°06'1 1.1 310 / 161002.8 1.8-0.5 7.0
2019-Aug-17 06:00N 79°00' E 007°00'0 0.0 320 / 161002.610.8 1.6-0.8 7.0
2019-Aug-17 05:00N 79°00' E 007°00'8 7.6 320 / 171002.3 1.4-0.9 7.0
2019-Aug-17 04:00N 78°54' E 006°36'9 9.2 310 / 191002.2 1.8-0.3 6.8
2019-Aug-17 03:00N 78°48' E 006°00'9 9.2 310 / 191002.5 1.5 0.1 6.5
2019-Aug-17 02:00N 78°42' E 005°24'8 7.6 320 / 171002.8 1.6-0.4 6.0
2019-Aug-17 01:00N 78°36' E 005°00'1 1.2 320 / 191003.1 1.0-0.8 6.1
2019-Aug-17 00:00N 78°36' E 005°06'6 6.1 320 / 211002.8 1.2-0.7 6.0
2019-Aug-16 23:00N 78°30' E 005°00'1212.0 310 / 231002.6 1.4-0.8 5.9
2019-Aug-16 22:00N 78°18' E 005°00'1212.0 310 / 211002.9 2.0 0.3 5.7
2019-Aug-16 21:00N 78°06' E 005°00'1212.1 320 / 211003.4 2.3 0.5 6.0
2019-Aug-16 20:00N 77°54' E 004°54'1212.0 310 / 231003.5 2.5 1.2 6.1
2019-Aug-16 19:00N 77°42' E 004°54'1212.0 320 / 231003.6 3.3 1.7 6.8
2019-Aug-16 18:00N 77°30' E 004°54'6 6.1 320 / 231003.710.8 3.2 1.2 6.7
2019-Aug-16 17:00N 77°24' E 004°48'1212.0 320 / 231003.8 3.4 1.9 6.5
2019-Aug-16 16:00N 77°12' E 004°48'1212.0 320 / 231004.0 2.9 1.6 6.9
2019-Aug-16 15:00N 77°00' E 004°48'1212.0 320 / 231004.310.8 3.2 2.1 7.0
2019-Aug-16 14:00N 76°48' E 004°48'6 6.2 320 / 231004.6 3.0 3.0 7.4
2019-Aug-16 13:00N 76°42' E 004°42'1212.0 330 / 211004.7 4.0-0.1 7.5
2019-Aug-16 12:00N 76°30' E 004°42'1212.0 340 / 211004.710.8 4.1 1.0 7.5
2019-Aug-16 11:00N 76°18' E 004°42'1212.1 340 / 191004.9 3.7 1.4 7.8
2019-Aug-16 10:00N 76°06' E 004°36'6 6.0 340 / 191004.9 4.0 0.1 7.5
2019-Aug-16 09:00N 76°00' E 004°36'1212.0 340 / 211004.727.0 3.5-0.2 7.7
2019-Aug-16 08:00N 75°48' E 004°36'1212.0 330 / 211004.6 4.2 0.2 7.9
2019-Aug-16 07:00N 75°36' E 004°36'1212.1 340 / 231004.4 3.7-0.8 7.9
2019-Aug-16 06:00N 75°24' E 004°30'1212.0 340 / 211004.327.0 3.9-0.2 8.2
2019-Aug-16 05:00N 75°12' E 004°30'6 6.0 330 / 231004.6 2.8-1.2 8.1
2019-Aug-16 04:00N 75°06' E 004°30'1212.0 320 / 211004.5 3.2 0.1 8.1
2019-Aug-16 03:00N 74°54' E 004°30'1212.1 340 / 191004.4 3.8-0.2 8.2
2019-Aug-16 02:00N 74°42' E 004°24'1212.0 330 / 191004.4 4.4 1.1 8.3
2019-Aug-16 01:00N 74°30' E 004°24'6 6.0 310 / 171004.9 4.6 1.1 8.3
2019-Aug-16 00:00N 74°24' E 004°24'1212.0 310 / 161005.2 4.9 3.3 8.6
2019-Aug-15 23:00N 74°12' E 004°24'1212.1 310 / 141005.5 6.2 4.2 8.6
2019-Aug-15 22:00N 74°00' E 004°18'1212.0 310 / 141005.7 7.0 4.6 8.3
2019-Aug-15 21:00N 73°48' E 004°18'1212.0 290 / 141006.1 7.4 5.2 8.5
2019-Aug-15 20:00N 73°36' E 004°18'1212.0 290 / 101006.2 7.3 5.5 8.1
2019-Aug-15 19:00N 73°24' E 004°18'6 6.2 310 / 101006.5 7.3 0.1 8.2
2019-Aug-15 18:00N 73°18' E 004°12'1212.0 310 / 101007.010.8 7.1 4.9 8.6
2019-Aug-15 17:00N 73°06' E 004°12'1212.0 290 / 81007.3 6.8 6.8 8.4
2019-Aug-15 16:00N 72°54' E 004°12'1212.0 320 / 101007.6 6.0 6.0 8.1
2019-Aug-15 15:00N 72°42' E 004°12'0 0.0 300 / 101007.827.0 6.4 3.1 9.0
2019-Aug-15 14:00N 72°42' E 004°12'6 6.0 300 / 121007.9 6.6 3.7 9.1
2019-Aug-15 13:00N 72°36' E 004°12'1212.1 300 / 121007.7 6.4 3.9 9.2
2019-Aug-15 12:00N 72°24' E 004°06'1212.0 300 / 101008.127.0 6.9 4.2 9.3
2019-Aug-15 11:00N 72°12' E 004°06'1212.0 290 / 81008.5 6.1 3.3 9.0
2019-Aug-15 10:00N 72°00' E 004°06'1212.0 330 / 41008.8 5.2 2.7 8.9
2019-Aug-15 09:00N 71°48' E 004°06'6 6.0 360 / 61009.210.8 5.4 2.7 9.5
2019-Aug-15 08:00N 71°42' E 004°06'1212.1 030 / 81008.9 6.0 2.2 9.2
2019-Aug-15 07:00N 71°30' E 004°00'1212.0 030 / 141008.9 6.6 2.6 9.4
2019-Aug-15 06:00N 71°18' E 004°00'1212.0 050 / 161008.810.8 6.8 2.7 9.6
2019-Aug-15 05:00N 71°06' E 004°00'1212.0 060 / 171008.5 7.0 3.5 8.9
2019-Aug-15 04:00N 70°54' E 004°00'6 6.3 060 / 191008.0 7.4 2.4 9.9
2019-Aug-15 03:00N 70°48' E 003°54'1212.0 060 / 211007.7 8.0 3.6 9.4
2019-Aug-15 02:00N 70°36' E 003°54'1212.0 070 / 211007.3 8.1 3.7 9.2
2019-Aug-15 01:00N 70°24' E 003°54'1212.0 070 / 231007.3 8.1 4.1 9.3
2019-Aug-15 00:00N 70°12' E 003°54'6 6.0 070 / 251006.8 8.0 4.1 9.4
2019-Aug-14 23:00N 70°06' E 003°54'1212.2 080 / 271006.7 7.8 4.010.1
2019-Aug-14 22:00N 69°54' E 003°48'1212.0 070 / 271006.0 8.4 4.010.3
2019-Aug-14 21:00N 69°42' E 003°48'1212.0 070 / 271005.8 8.1 3.7 8.2
2019-Aug-14 20:00N 69°30' E 003°48'6 6.0 070 / 271005.2 8.0 4.2 9.1
2019-Aug-14 19:00N 69°24' E 003°48'1212.0 060 / 291005.1 8.3 4.810.6
2019-Aug-14 18:00N 69°12' E 003°48'1212.0 070 / 311004.0 2.2 8.5 5.111.0
2019-Aug-14 17:00N 69°00' E 003°48'1212.0 070 / 291004.2 9.2 5.811.2
2019-Aug-14 16:00N 68°48' E 003°48'6 6.4 070 / 291003.3 9.2 6.410.9
2019-Aug-14 15:00N 68°42' E 003°42'1212.0 070 / 311003.0 2.2 9.3 6.510.6
2019-Aug-14 14:00N 68°30' E 003°42'6 6.0 060 / 311003.1 9.2 6.711.3
2019-Aug-14 13:00N 68°24' E 003°42'1212.0 060 / 331002.5 9.4 6.911.5
2019-Aug-14 12:00N 68°12' E 003°42'1212.2 060 / 311002.2 2.2 9.5 7.811.3
2019-Aug-14 11:00N 68°00' E 003°36'6 6.0 060 / 311001.6 9.6 8.211.6
2019-Aug-14 10:00N 67°54' E 003°36'1212.0 060 / 291001.3 9.7 8.711.5
2019-Aug-14 09:00N 67°42' E 003°36'1212.0 060 / 271001.1 2.2 9.8 9.111.6
2019-Aug-14 08:00N 67°30' E 003°36'   060 / 291000.8 10.0 8.611.3

Dump ship's entire track history